Language selection

My Weather Profile Weather Topics  | 

Explorer - northwestern half: Past 24 Hour Conditions

 

Prince Rupert Airport

07:00 PM PST 21 January 2022
Disclaimer

This table is a summary of hourly weather conditions for the past 24 hours.
Please note that these observations might not always be representative of weather conditions over their associated marine area.

Date / Time
(PST)
Wind(knots) Conditions Visibility(km) Pressure(kPa) Air tempC) Relative humidity(%) Dew pointC)
21 January 2022
19:00 SE 16 gust 21 Light Rain 16 103.1 6 87 4
18:00 SE 15 gust 21 Light Rain 16 103.1 6 88 5
17:00 SE 14 gust 20 Cloudy 16 103.1 7 85 4
16:00 SE 14 gust 24 Light Rain 16 103.1 7 87 5
15:00 SSE 17 gust 26 Light Rain 16 103.1 6 89 5
14:00 SSE 13 gust 20 Light Rain 6 103.1 6 93 5
13:00 SSE 12 gust 19 Light Rain 16 103.0 7 86 5
12:00 SSE 14 gust 26 Cloudy 16 103.0 7 78 4
11:00 SE 15 gust 25 Cloudy 16 103.0 7 79 4
10:00 SSE 13 gust 20 Cloudy 16 102.9 7 75 3
9:00 SE 12 gust 21 Cloudy 16 102.9 7 77 3
8:00 SE 13 gust 19 Mostly Cloudy 16 102.9 6 80 3
7:00 SE 9 gust 17 Mainly Clear 16 102.9 6 79 3
6:00 SE 14 gust 19 Clear 16 102.9 6 79 3
5:00 SE 14 gust 19 Clear 16 102.9 6 83 3
4:00 SSE 12 gust 20 Clear 16 102.9 7 81 4
3:00 SE 10 gust 18 Partly Cloudy 16 103.0 6 84 3
2:00 SSE 8 Mostly Cloudy 16 103.0 6 86 4
1:00 SSE 5 Cloudy 16 102.9 6 86 4
0:00 SE 6 Cloudy 16 102.7 5 90 4
20 January 2022
23:00 SE 10 gust 16 Light Rain 16 102.8 5 92 4
22:00 E 11 Cloudy 16 102.7 5 96 5
21:00 SE 6 Light Rain 16 102.9 5 97 5
20:00 SE 5 Light Rain 11 102.7 5 98 5
19:00 E 4 Light Rain 2 102.7 5 98 5

Zoom-in to make a selection

Map of Pacific - North Coast marine weather areas Middle Nomad - 46004 South Nomad - 46036 Dixon Entrance Central - 46145 South Moresby - 46147 Nanakwa Shoal - 46181 North Hecate Strait - 46183 North Nomad - 46184 South Hecate Strait - 46185 West Sea Otter - 46204 West Dixon Entrance - 46205 East Dellwood - 46207 West Moresby - 46208 Sartine Island Cape St.James Kindakun Rocks Langara Island Masset Municipal Airport Rose Spit Sandspit Airport Bella Bella Airport Bella Coola Airport Bonilla Island Cathedral Point Cumshewa Island Grey Islet Holland Rock Lucy Islands Lightstation Prince Rupert Airport
Legend:
buoy Buoy
land station Land Station

Pacific - North Coast Area

Another Region

What we are doing

Features

Hello Weather

Hello Weather: our upgraded telephone weather service is here. 1-833-794-3556 or 1-833-79HELLO.

Date modified: